Time;durP1;ratioP1;P1;durP2;ratioP2;P2;SDS_P1;SDS_P2;PMS_P1;PMS_P2;Temp;Humidity;BMP_temperature;BMP_pressure;BME280_temperature;BME280_humidity;BME280_pressure;Samples;Min_cycle;Max_cycle;Signal;HPM_P1;HPM_P2
2021/11/28 00:01:44;;;;;;;53.80;34.17;;;;;;;7.53;98.86;98551.31;4963345;28;20046;-60
2021/11/28 00:04:13;;;;;;;59.40;34.80;;;;;;;7.55;98.88;98550.91;4979591;28;20046;-61
2021/11/28 00:06:39;;;;;;;51.22;31.98;;;;;;;7.56;98.42;98547.69;4979138;28;20023;-61
2021/11/28 00:14:34;;;;;;;50.08;32.63;;;;;;;7.42;99.29;98542.34;4975575;28;20399;-60
2021/11/28 00:16:59;;;;;;;56.40;32.92;;;;;;;7.46;99.26;98531.91;4961043;28;20031;-60
2021/11/28 00:19:24;;;;;;;54.38;32.28;;;;;;;7.50;99.40;98532.63;4961904;28;20292;-61
2021/11/28 00:21:50;;;;;;;54.53;33.45;;;;;;;7.52;99.06;98527.38;4961469;28;20319;-61
2021/11/28 00:24:15;;;;;;;62.45;36.15;;;;;;;7.50;98.94;98532.63;4960048;28;20047;-61
2021/11/28 00:26:40;;;;;;;66.80;37.47;;;;;;;7.48;99.20;98531.47;4962031;28;20042;-62
2021/11/28 00:29:08;;;;;;;57.42;35.92;;;;;;;7.45;99.03;98527.53;4976847;28;20022;-61
2021/11/28 00:31:33;;;;;;;51.35;32.55;;;;;;;7.46;99.27;98526.31;4977315;28;20057;-61
2021/11/28 00:33:59;;;;;;;52.10;32.13;;;;;;;7.46;99.25;98526.31;4986947;28;20054;-60
2021/11/28 00:36:24;;;;;;;53.25;32.85;;;;;;;7.44;99.40;98523.94;4978330;28;20327;-60
2021/11/28 00:38:50;;;;;;;49.60;32.17;;;;;;;7.44;99.15;98537.13;4978585;28;20427;-61
2021/11/28 00:41:15;;;;;;;56.47;33.42;;;;;;;7.47;99.25;98539.06;4978575;28;20095;-61
2021/11/28 00:43:40;;;;;;;47.08;30.90;;;;;;;7.48;99.25;98539.84;4978477;28;20106;-61
2021/11/28 00:46:06;;;;;;;45.45;28.52;;;;;;;7.51;99.63;98542.59;4978558;28;20023;-61
2021/11/28 00:48:31;;;;;;;48.03;31.73;;;;;;;7.56;99.23;98535.72;4978294;28;20407;-60
2021/11/28 00:53:47;;;;;;;49.58;31.05;;;;;;;7.58;99.09;98539.66;4977365;28;20026;-61
2021/11/28 00:56:13;;;;;;;54.30;32.55;;;;;;;7.60;98.52;98537.22;4976951;28;20058;-61
2021/11/28 00:58:39;;;;;;;49.15;30.60;;;;;;;7.70;98.24;98541.84;4977990;28;20031;-61
2021/11/28 01:01:04;;;;;;;48.38;30.90;;;;;;;7.69;97.95;98540.25;4978005;28;20034;-61
2021/11/28 01:03:29;;;;;;;57.58;34.50;;;;;;;7.70;97.37;98541.84;4978199;28;20034;-60
2021/11/28 01:05:55;;;;;;;50.28;32.10;;;;;;;7.77;98.06;98540.91;4978182;28;20149;-60
2021/11/28 01:08:21;;;;;;;48.80;30.80;;;;;;;7.79;96.86;98549.66;4978112;28;20070;-60
2021/11/28 01:10:48;;;;;;;47.38;30.45;;;;;;;7.80;97.07;98545.63;4978029;28;20049;-61
2021/11/28 01:13:16;;;;;;;47.85;30.48;;;;;;;7.83;96.62;98544.78;4978086;28;20034;-61
2021/11/28 01:15:41;;;;;;;51.75;30.88;;;;;;;7.78;95.93;98544.50;4977710;28;20110;-61
2021/11/28 01:18:06;;;;;;;50.13;30.80;;;;;;;7.71;95.71;98539.84;4978222;28;20106;-62
2021/11/28 01:20:32;;;;;;;51.38;32.28;;;;;;;7.74;96.39;98536.97;4978061;28;20034;-61
2021/11/28 01:22:57;;;;;;;46.03;30.58;;;;;;;7.76;96.47;98539.31;4977896;28;20023;-61
2021/11/28 01:25:23;;;;;;;48.65;30.77;;;;;;;7.77;97.01;98528.94;4977734;28;20407;-61
2021/11/28 01:27:49;;;;;;;48.80;31.20;;;;;;;7.70;96.78;98536.25;4977675;28;20445;-64
2021/11/28 01:30:15;;;;;;;47.25;29.88;;;;;;;7.71;96.78;98537.81;4976935;28;20023;-63
2021/11/28 01:32:43;;;;;;;50.65;30.60;;;;;;;7.68;96.48;98535.09;4977657;28;20030;-63
2021/11/28 01:35:10;;;;;;;49.67;31.13;;;;;;;7.65;96.80;98539.50;4990760;28;20295;-63
2021/11/28 01:37:37;;;;;;;46.60;29.90;;;;;;;7.70;97.31;98539.03;4977711;28;20070;-61
2021/11/28 01:40:05;;;;;;;46.00;31.35;;;;;;;7.65;97.11;98533.91;4977440;28;20161;-62
2021/11/28 01:42:46;;;;;;;46.75;31.27;;;;;;;7.61;97.31;98526.81;4977623;28;20125;-61
2021/11/28 01:45:21;;;;;;;48.95;32.13;;;;;;;7.66;97.20;98538.28;4977376;28;20015;-62
2021/11/28 01:47:47;;;;;;;52.95;31.42;;;;;;;7.70;96.78;98529.88;4977452;28;20388;-62
2021/11/28 01:50:13;;;;;;;46.38;30.17;;;;;;;7.73;96.69;98535.38;4977365;28;20031;-61
2021/11/28 01:52:39;;;;;;;47.47;30.23;;;;;;;7.66;96.85;98540.31;4977203;28;20030;-61
2021/11/28 01:55:09;;;;;;;46.60;30.02;;;;;;;7.61;97.09;98535.22;4977100;28;20030;-62
2021/11/28 01:57:36;;;;;;;45.55;29.85;;;;;;;7.58;97.09;98528.47;4977395;28;20038;-61
2021/11/28 02:00:08;;;;;;;43.90;29.52;;;;;;;7.63;97.83;98530.75;4977335;28;20030;-61
2021/11/28 02:02:34;;;;;;;46.58;30.23;;;;;;;7.59;97.83;98524.47;4977235;28;20078;-61
2021/11/28 02:05:00;;;;;;;44.47;28.60;;;;;;;7.57;97.72;98521.31;4976099;28;20419;-61
2021/11/28 02:07:27;;;;;;;44.88;28.77;;;;;;;7.54;98.30;98522.16;4976945;28;20026;-63
2021/11/28 02:09:53;;;;;;;46.65;29.05;;;;;;;7.51;98.65;98517.44;4977213;28;20166;-61
2021/11/28 02:12:19;;;;;;;47.38;29.45;;;;;;;7.48;99.21;98518.28;4974771;28;20410;-62
2021/11/28 02:14:44;;;;;;;46.17;29.33;;;;;;;7.48;99.64;98520.28;4976793;28;20158;-61
2021/11/28 02:17:11;;;;;;;48.22;30.73;;;;;;;7.46;100.00;98508.75;4976817;28;20031;-61
2021/11/28 02:19:37;;;;;;;46.63;31.23;;;;;;;7.46;99.93;98503.16;4977059;28;20077;-61
2021/11/28 02:22:03;;;;;;;49.53;31.10;;;;;;;7.40;100.00;98511.25;4976794;28;20432;-62
2021/11/28 02:24:28;;;;;;;50.00;31.17;;;;;;;7.42;100.00;98503.22;4976873;28;20034;-62
2021/11/28 02:26:53;;;;;;;48.03;30.83;;;;;;;7.44;100.00;98506.38;4959368;28;20023;-61
2021/11/28 02:29:19;;;;;;;56.17;34.05;;;;;;;7.48;100.00;98498.72;4976786;28;20105;-61
2021/11/28 02:31:44;;;;;;;65.13;37.78;;;;;;;7.50;100.00;98501.09;4976406;28;20319;-61
2021/11/28 02:34:10;;;;;;;56.20;34.30;;;;;;;7.49;100.00;98496.72;4984748;28;20407;-62
2021/11/28 02:36:35;;;;;;;60.38;35.08;;;;;;;7.41;100.00;98491.25;4982129;28;20031;-62
2021/11/28 02:39:01;;;;;;;64.10;37.75;;;;;;;7.41;100.00;98488.47;4976645;28;20498;-62
2021/11/28 02:41:26;;;;;;;71.70;38.80;;;;;;;7.41;100.00;98496.06;4976331;28;20027;-61
2021/11/28 02:43:51;;;;;;;52.28;30.92;;;;;;;7.45;100.00;98496.78;4976561;28;20022;-63
2021/11/28 02:46:17;;;;;;;50.03;32.05;;;;;;;7.45;100.00;98496.78;4976416;28;20110;-62
2021/11/28 02:48:42;;;;;;;48.53;31.55;;;;;;;7.44;100.00;98490.41;4976419;28;20497;-62
2021/11/28 02:51:08;;;;;;;51.63;32.97;;;;;;;7.46;100.00;98487.19;4976669;28;20030;-63
2021/11/28 02:53:34;;;;;;;49.53;30.35;;;;;;;7.45;100.00;98474.41;4976469;28;20027;-61
2021/11/28 02:56:01;;;;;;;46.10;28.98;;;;;;;7.50;100.00;98461.94;4959412;28;20077;-60
2021/11/28 02:58:26;;;;;;;43.05;28.13;;;;;;;7.54;100.00;98455.06;4976738;28;20385;-61
2021/11/28 03:01:03;;;;;;;44.47;28.10;;;;;;;7.56;100.00;98447.03;4976674;28;20023;-63
2021/11/28 03:03:28;;;;;;;43.53;29.58;;;;;;;7.52;100.00;98440.72;4976459;28;20038;-61
2021/11/28 03:05:53;;;;;;;48.63;28.33;;;;;;;7.53;100.00;98408.75;4976642;28;20015;-61
2021/11/28 03:08:19;;;;;;;40.85;26.75;;;;;;;7.54;100.00;98409.56;4976066;28;20394;-61
2021/11/28 03:10:47;;;;;;;41.22;26.55;;;;;;;7.52;100.00;98426.75;4976123;28;20073;-62
2021/11/28 03:13:17;;;;;;;37.80;26.40;;;;;;;7.49;100.00;98424.81;4976564;28;20026;-62
2021/11/28 03:15:43;;;;;;;39.28;24.60;;;;;;;7.54;100.00;98423.53;4976401;28;20034;-61
2021/11/28 03:18:19;;;;;;;41.25;25.63;;;;;;;7.56;100.00;98419.09;4976234;28;20335;-61
2021/11/28 03:20:45;;;;;;;41.05;25.70;;;;;;;7.60;100.00;98419.78;4976203;28;20380;-62
2021/11/28 03:23:12;;;;;;;43.20;26.45;;;;;;;7.57;100.00;98428.25;4976060;28;20050;-61
2021/11/28 03:25:38;;;;;;;37.88;25.00;;;;;;;7.53;100.00;98419.94;4979211;28;20019;-63
2021/11/28 03:28:04;;;;;;;38.28;23.67;;;;;;;7.58;100.00;98422.22;4980024;28;20022;-63
2021/11/28 03:30:29;;;;;;;40.80;24.00;;;;;;;7.57;100.00;98437.44;4979835;28;20101;-61
2021/11/28 03:32:55;;;;;;;56.45;33.78;;;;;;;7.61;100.00;98443.75;4979907;28;20034;-61
2021/11/28 03:35:20;;;;;;;199.07;118.28;;;;;;;7.67;100.00;98461.63;4986036;28;20468;-61
2021/11/28 03:37:46;;;;;;;54.65;35.40;;;;;;;7.73;100.00;98462.69;4987130;28;20338;-61
2021/11/28 03:40:13;;;;;;;43.72;30.67;;;;;;;7.80;100.00;98452.56;4979704;28;20491;-60
2021/11/28 03:42:39;;;;;;;36.67;27.67;;;;;;;7.86;100.00;98465.59;4979868;28;20055;-61
2021/11/28 03:45:09;;;;;;;33.10;20.80;;;;;;;7.90;100.00;98462.72;4979617;28;20058;-61
2021/11/28 03:47:35;;;;;;;32.13;21.48;;;;;;;7.91;100.00;98473.47;4979608;28;20059;-61
2021/11/28 03:50:00;;;;;;;40.80;24.85;;;;;;;7.95;100.00;98474.22;4979617;28;20035;-61
2021/11/28 03:52:26;;;;;;;36.60;21.55;;;;;;;7.97;100.00;98465.41;4979314;28;20078;-61
2021/11/28 03:54:51;;;;;;;34.65;20.73;;;;;;;7.93;99.41;98456.28;4979363;28;20019;-63
2021/11/28 03:57:17;;;;;;;31.67;20.73;;;;;;;7.91;99.60;98462.28;4979501;28;20034;-61
2021/11/28 03:59:42;;;;;;;33.13;22.83;;;;;;;7.88;99.68;98456.78;4979401;28;20108;-60
2021/11/28 04:02:08;;;;;;;30.73;20.75;;;;;;;7.87;99.23;98461.59;4979242;28;20034;-61
2021/11/28 04:04:33;;;;;;;35.60;23.08;;;;;;;7.88;99.22;98467.97;4979594;28;20023;-61
2021/11/28 04:06:58;;;;;;;38.58;22.55;;;;;;;7.79;99.39;98450.97;4979038;28;20374;-60
2021/11/28 04:09:24;;;;;;;35.65;22.52;;;;;;;7.70;99.68;98445.97;4978874;28;20051;-63
2021/11/28 04:11:49;;;;;;;37.72;23.08;;;;;;;7.75;100.00;98449.06;4979251;28;20363;-61
2021/11/28 04:14:16;;;;;;;37.83;22.10;;;;;;;7.69;99.56;98431.22;4979020;28;20338;-62
2021/11/28 04:16:42;;;;;;;31.25;21.02;;;;;;;7.59;100.00;98437.78;4979355;28;20026;-62
2021/11/28 04:19:07;;;;;;;35.25;20.50;;;;;;;7.56;99.77;98443.44;4978978;28;20022;-60
2021/11/28 04:21:32;;;;;;;33.70;20.83;;;;;;;7.52;100.00;98451.91;4978694;28;20038;-61
2021/11/28 04:23:58;;;;;;;31.23;20.95;;;;;;;7.49;100.00;98429.63;4979139;28;20031;-61
2021/11/28 04:26:23;;;;;;;38.47;20.77;;;;;;;7.46;100.00;98428.47;4978752;28;20029;-61
2021/11/28 04:28:49;;;;;;;31.25;21.05;;;;;;;7.44;100.00;98411.34;4978992;28;20113;-61
2021/11/28 04:31:14;;;;;;;34.20;20.92;;;;;;;7.43;100.00;98416.16;4978792;28;20145;-62
2021/11/28 04:33:40;;;;;;;31.52;20.67;;;;;;;7.47;100.00;98449.63;4978620;28;20039;-60
2021/11/28 04:36:06;;;;;;;32.33;21.55;;;;;;;7.53;100.00;98453.50;4978306;28;20434;-61
2021/11/28 04:38:31;;;;;;;31.45;19.98;;;;;;;7.60;100.00;98442.16;4992273;28;20116;-61
2021/11/28 04:40:57;;;;;;;31.67;19.67;;;;;;;7.54;100.00;98426.31;4978746;28;20311;-62
2021/11/28 04:43:41;;;;;;;34.63;21.17;;;;;;;7.54;100.00;98415.94;4978669;28;20031;-61
2021/11/28 04:46:06;;;;;;;31.90;20.30;;;;;;;7.52;100.00;98412.78;4978754;28;20123;-60
2021/11/28 04:48:31;;;;;;;31.77;20.27;;;;;;;7.56;100.00;98407.91;4978348;28;20311;-60
2021/11/28 04:50:57;;;;;;;28.45;19.40;;;;;;;7.54;100.00;98403.97;4978396;28;20311;-61
2021/11/28 04:53:22;;;;;;;29.95;19.35;;;;;;;7.54;100.00;98413.13;4978441;28;20049;-61
2021/11/28 04:55:48;;;;;;;33.20;19.30;;;;;;;7.55;100.00;98403.53;4978267;28;20097;-61
2021/11/28 04:58:14;;;;;;;27.00;17.98;;;;;;;7.57;100.00;98411.47;4978532;28;20041;-61
2021/11/28 05:00:39;;;;;;;29.42;18.80;;;;;;;7.61;100.00;98420.59;4978452;28;20019;-60
2021/11/28 05:03:04;;;;;;;30.05;20.13;;;;;;;7.63;100.00;98420.94;4978373;28;20442;-61
2021/11/28 05:05:30;;;;;;;31.35;18.88;;;;;;;7.61;99.19;98426.16;4977944;28;20023;-61
2021/11/28 05:07:55;;;;;;;33.88;19.50;;;;;;;7.58;98.90;98424.25;4978531;28;20019;-61
2021/11/28 05:10:21;;;;;;;34.83;20.45;;;;;;;7.58;98.81;98427.03;4978003;28;20358;-61
2021/11/28 05:12:46;;;;;;;32.22;20.35;;;;;;;7.57;99.39;98426.25;4978079;28;20415;-61
2021/11/28 05:15:12;;;;;;;32.97;19.98;;;;;;;7.63;99.38;98432.91;4978231;28;20019;-61
2021/11/28 05:17:37;;;;;;;28.05;19.02;;;;;;;7.66;99.56;98445.25;4977909;28;20414;-61
2021/11/28 05:20:04;;;;;;;31.52;19.45;;;;;;;7.66;99.44;98445.25;4977885;28;20031;-61
2021/11/28 05:22:29;;;;;;;35.38;21.23;;;;;;;7.61;99.23;98435.34;4977989;28;20077;-61
2021/11/28 05:24:55;;;;;;;33.92;21.83;;;;;;;7.60;98.84;98438.56;4978061;28;20018;-61
2021/11/28 05:27:20;;;;;;;36.17;20.58;;;;;;;7.61;98.92;98438.16;4977896;28;20315;-63
2021/11/28 05:29:46;;;;;;;32.10;20.02;;;;;;;7.64;99.13;98444.88;4991358;28;20065;-61
2021/11/28 05:32:12;;;;;;;38.60;24.23;;;;;;;7.65;98.60;98440.88;4978159;28;20105;-61
2021/11/28 05:34:38;;;;;;;35.72;21.63;;;;;;;7.60;98.33;98441.38;4977133;28;20098;-61
2021/11/28 05:37:04;;;;;;;40.83;25.42;;;;;;;7.57;97.80;98431.84;4984113;28;20135;-61
2021/11/28 05:39:30;;;;;;;38.90;23.35;;;;;;;7.51;97.94;98427.19;4984966;28;20081;-61
2021/11/28 05:41:55;;;;;;;33.42;20.52;;;;;;;7.44;97.68;98422.53;4977839;28;20027;-61
2021/11/28 05:44:21;;;;;;;28.80;18.05;;;;;;;7.39;97.67;98436.97;4977491;28;20403;-61
2021/11/28 05:46:46;;;;;;;30.02;19.00;;;;;;;7.37;97.77;98439.41;4976794;28;20026;-61
2021/11/28 05:49:12;;;;;;;29.05;18.40;;;;;;;7.28;97.84;98434.41;4977413;28;20030;-62
2021/11/28 05:51:37;;;;;;;29.52;19.52;;;;;;;7.20;98.13;98435.75;4976994;28;20406;-61
2021/11/28 05:54:02;;;;;;;28.15;19.02;;;;;;;7.20;98.89;98441.34;4977478;28;20113;-62
2021/11/28 05:56:28;;;;;;;25.40;16.27;;;;;;;7.24;99.33;98441.28;4977369;28;20031;-61
2021/11/28 05:58:54;;;;;;;23.77;16.60;;;;;;;7.20;99.00;98444.13;4977061;28;20415;-61
2021/11/28 06:01:20;;;;;;;25.60;16.00;;;;;;;7.18;98.78;98448.56;4977419;28;20110;-61
2021/11/28 06:03:45;;;;;;;21.80;15.65;;;;;;;7.16;99.58;98448.22;4976844;28;20034;-60
2021/11/28 06:06:11;;;;;;;24.10;15.23;;;;;;;7.18;99.38;98438.19;4977220;28;20101;-60
2021/11/28 06:08:37;;;;;;;25.52;15.75;;;;;;;7.21;99.40;98447.72;4976952;28;20033;-58
2021/11/28 06:11:02;;;;;;;21.88;14.77;;;;;;;7.21;99.63;98454.09;4977056;28;20090;-61
2021/11/28 06:13:27;;;;;;;20.13;13.73;;;;;;;7.34;100.00;98454.25;4977472;28;20033;-61
2021/11/28 06:15:53;;;;;;;22.05;13.50;;;;;;;7.35;99.74;98451.03;4976477;28;20077;-60
2021/11/28 06:18:18;;;;;;;18.63;12.73;;;;;;;7.37;99.19;98461.78;4976930;28;20034;-63
2021/11/28 06:20:43;;;;;;;19.15;13.38;;;;;;;7.39;99.26;98459.34;4976810;28;20026;-61
2021/11/28 06:23:09;;;;;;;19.92;11.95;;;;;;;7.42;99.31;98461.31;4977003;28;20026;-61
2021/11/28 06:25:34;;;;;;;20.02;12.32;;;;;;;7.39;99.32;98464.94;4976841;28;20019;-61
2021/11/28 06:27:59;;;;;;;23.90;14.95;;;;;;;7.44;99.63;98470.03;4976848;28;20031;-61
2021/11/28 06:30:25;;;;;;;20.15;12.88;;;;;;;7.48;99.63;98483.94;4976666;28;20027;-61
2021/11/28 06:32:51;;;;;;;26.23;16.45;;;;;;;7.51;100.00;98477.50;4976689;28;20037;-61
2021/11/28 06:35:16;;;;;;;25.15;14.38;;;;;;;7.59;99.83;98462.16;4976654;28;20101;-61
2021/11/28 06:37:41;;;;;;;21.38;12.60;;;;;;;7.59;99.34;98456.56;4977097;28;20348;-62
2021/11/28 06:40:07;;;;;;;17.58;11.10;;;;;;;7.59;99.42;98456.56;4990068;28;20023;-62
2021/11/28 06:42:33;;;;;;;17.63;11.02;;;;;;;7.57;99.92;98453.41;4976695;28;20383;-61
2021/11/28 06:44:58;;;;;;;18.90;11.73;;;;;;;7.58;100.00;98463.38;4976663;28;20030;-61
2021/11/28 06:47:23;;;;;;;19.20;11.38;;;;;;;7.55;100.00;98455.84;4976336;28;20023;-61
2021/11/28 06:49:49;;;;;;;16.75;10.65;;;;;;;7.58;100.00;98460.59;4976889;28;20085;-61
2021/11/28 06:52:14;;;;;;;17.83;11.27;;;;;;;7.60;100.00;98464.53;4959397;28;20089;-61
2021/11/28 06:54:40;;;;;;;18.85;9.60;;;;;;;7.56;100.00;98452.63;4976294;28;20023;-62
2021/11/28 06:57:05;;;;;;;14.88;9.90;;;;;;;7.57;100.00;98462.59;4976465;28;20041;-62
2021/11/28 06:59:31;;;;;;;14.00;10.23;;;;;;;7.64;100.00;98454.06;4979658;28;20030;-63
2021/11/28 07:01:57;;;;;;;15.85;9.98;;;;;;;7.72;100.00;98466.69;4980434;28;20370;-61
2021/11/28 07:04:22;;;;;;;16.52;10.93;;;;;;;7.76;99.95;98469.41;4987650;28;20318;-62
2021/11/28 07:06:48;;;;;;;24.00;15.07;;;;;;;7.82;100.00;98469.69;4987051;28;20022;-61
2021/11/28 07:09:13;;;;;;;20.60;14.80;;;;;;;7.80;99.62;98466.53;4980362;28;20450;-60
2021/11/28 07:11:39;;;;;;;18.05;11.43;;;;;;;7.78;99.06;98460.59;4980197;28;20069;-61
2021/11/28 07:14:04;;;;;;;14.75;10.07;;;;;;;7.82;99.35;98453.72;4980246;28;20426;-61
2021/11/28 07:16:29;;;;;;;18.75;11.20;;;;;;;7.81;98.91;98448.53;4980132;28;20331;-62
2021/11/28 07:18:55;;;;;;;15.52;10.70;;;;;;;7.82;99.26;98447.31;4979993;28;20061;-64
2021/11/28 07:21:20;;;;;;;12.70;8.55;;;;;;;7.80;99.45;98436.56;4980160;28;20027;-63
2021/11/28 07:23:46;;;;;;;14.20;9.05;;;;;;;7.79;99.63;98428.63;4980205;28;20018;-62
2021/11/28 07:26:13;;;;;;;24.50;11.57;;;;;;;7.80;100.00;98432.97;4980119;28;20022;-63
2021/11/28 07:28:39;;;;;;;15.55;9.27;;;;;;;7.82;99.83;98427.75;4980104;28;20351;-62
2021/11/28 07:31:05;;;;;;;162.18;43.45;;;;;;;7.81;100.00;98414.97;4980031;28;20036;-61
2021/11/28 07:33:31;;;;;;;99.65;28.98;;;;;;;7.81;100.00;98417.78;4979835;28;20466;-62
2021/11/28 07:35:56;;;;;;;23.17;11.20;;;;;;;7.85;100.00;98422.06;4979850;28;20098;-61
2021/11/28 07:38:21;;;;;;;140.98;35.75;;;;;;;7.87;100.00;98416.84;4982768;28;20046;-62
2021/11/28 07:40:47;;;;;;;131.50;34.95;;;;;;;7.87;100.00;98402.06;4990440;28;20043;-62
2021/11/28 07:43:13;;;;;;;118.63;30.48;;;;;;;7.87;100.00;98407.66;4979543;28;20030;-62
2021/11/28 07:45:39;;;;;;;172.68;44.55;;;;;;;7.87;100.00;98405.66;4962400;28;20411;-63
2021/11/28 07:48:04;;;;;;;44.35;16.58;;;;;;;7.90;100.00;98409.59;4979761;28;20023;-63
2021/11/28 07:50:30;;;;;;;21.58;10.48;;;;;;;7.91;100.00;98397.97;4979465;28;20311;-62
2021/11/28 07:52:56;;;;;;;55.90;21.48;;;;;;;8.00;100.00;98408.59;4979608;28;20023;-61
2021/11/28 07:55:21;;;;;;;42.50;17.45;;;;;;;8.06;100.00;98401.25;4979494;28;20046;-63
2021/11/28 07:57:47;;;;;;;76.18;28.35;;;;;;;8.15;100.00;98407.03;4979319;28;20304;-61
2021/11/28 08:00:13;;;;;;;250.10;71.25;;;;;;;8.21;100.00;98398.91;4979257;28;20033;-62
2021/11/28 08:02:38;;;;;;;122.82;38.92;;;;;;;8.27;100.00;98383.97;4979555;28;20023;-62
2021/11/28 08:05:07;;;;;;;29.65;13.68;;;;;;;8.35;100.00;98379.81;4979762;28;20453;-61
2021/11/28 08:07:32;;;;;;;23.58;14.27;;;;;;;8.53;100.00;98376.59;4983080;28;20089;-61
2021/11/28 08:09:58;;;;;;;69.65;26.85;;;;;;;8.65;100.00;98389.88;4979593;28;20047;-63
2021/11/28 08:12:24;;;;;;;51.40;22.25;;;;;;;8.74;100.00;98383.63;4979463;28;20035;-61
2021/11/28 08:14:51;;;;;;;32.28;17.60;;;;;;;8.89;100.00;98376.47;4978653;28;20027;-63
2021/11/28 08:17:16;;;;;;;27.23;16.40;;;;;;;9.03;100.00;98371.69;4979161;28;20046;-63
2021/11/28 08:19:42;;;;;;;24.40;14.73;;;;;;;9.15;100.00;98371.75;4979003;28;20019;-63
2021/11/28 08:22:08;;;;;;;21.90;13.68;;;;;;;9.29;100.00;98376.97;4979292;28;20019;-62
2021/11/28 08:24:34;;;;;;;20.65;13.48;;;;;;;9.35;98.38;98368.81;4974730;28;20027;-63
2021/11/28 08:27:00;;;;;;;27.08;15.50;;;;;;;9.48;97.08;98375.25;4979189;28;20319;-61
2021/11/28 08:29:26;;;;;;;19.02;11.52;;;;;;;9.62;97.17;98378.88;4978769;28;20023;-61
2021/11/28 08:31:52;;;;;;;17.65;10.63;;;;;;;9.71;96.15;98368.56;4978781;28;20031;-61
2021/11/28 08:34:17;;;;;;;21.67;11.60;;;;;;;9.85;95.40;98381.38;4978494;28;20140;-62
2021/11/28 08:36:43;;;;;;;16.92;10.57;;;;;;;10.00;94.38;98384.56;4978620;28;20031;-62
2021/11/28 08:39:08;;;;;;;16.65;10.80;;;;;;;10.11;92.69;98377.38;4980817;28;20093;-64
2021/11/28 08:41:34;;;;;;;15.85;10.13;;;;;;;10.33;92.23;98382.34;4965732;28;20119;-61
2021/11/28 08:43:59;;;;;;;11.77;8.65;;;;;;;10.48;90.41;98384.25;4978755;28;20014;-61
2021/11/28 08:46:25;;;;;;;15.95;8.88;;;;;;;10.64;90.90;98383.31;4978588;28;20026;-62
2021/11/28 08:48:53;;;;;;;15.65;9.30;;;;;;;10.79;87.78;98392.88;4978358;28;20292;-62
2021/11/28 08:51:19;;;;;;;15.70;8.80;;;;;;;11.03;88.88;98381.25;4978392;28;20030;-63
2021/11/28 08:53:44;;;;;;;10.27;7.68;;;;;;;11.21;85.20;98381.38;4960941;28;20437;-64
2021/11/28 08:56:09;;;;;;;12.18;7.78;;;;;;;11.26;83.96;98371.59;4978372;28;20327;-63
2021/11/28 08:58:35;;;;;;;10.93;7.85;;;;;;;11.27;83.46;98388.00;4963008;28;20027;-60
2021/11/28 09:01:00;;;;;;;9.75;7.28;;;;;;;11.28;84.40;98383.19;4973620;28;20088;-61
2021/11/28 09:03:26;;;;;;;11.73;8.00;;;;;;;11.46;86.21;98395.34;4978302;28;20054;-60
2021/11/28 09:05:51;;;;;;;14.15;7.95;;;;;;;11.68;85.85;98388.94;4978043;28;20021;-61
2021/11/28 09:08:17;;;;;;;9.60;6.90;;;;;;;11.86;82.85;98377.84;4977847;28;20031;-65
2021/11/28 09:10:44;;;;;;;11.80;7.65;;;;;;;11.95;80.88;98380.69;4977366;28;20055;-64
2021/11/28 09:13:10;;;;;;;13.43;7.00;;;;;;;11.94;79.13;98383.97;4977369;28;20038;-64
2021/11/28 09:15:36;;;;;;;11.80;6.90;;;;;;;11.87;79.65;98396.28;4977633;28;20461;-65
2021/11/28 09:18:11;;;;;;;12.35;7.22;;;;;;;11.62;78.12;98374.69;4978030;28;20058;-65
2021/11/28 09:20:38;;;;;;;8.82;6.80;;;;;;;11.53;78.94;98379.47;4960694;28;20022;-64
2021/11/28 09:25:33;;;;;;;10.13;6.95;;;;;;;11.49;79.64;98367.53;4978139;28;20031;-64
2021/11/28 09:28:02;;;;;;;12.13;7.25;;;;;;;11.50;79.82;98367.06;4976623;28;20461;-63
2021/11/28 09:30:29;;;;;;;10.30;6.35;;;;;;;11.42;78.85;98369.38;4970913;28;20031;-62
2021/11/28 09:32:57;;;;;;;9.82;6.32;;;;;;;11.24;79.33;98382.53;4960485;28;20034;-64
2021/11/28 09:35:23;;;;;;;12.32;7.78;;;;;;;11.22;80.28;98368.09;4977848;28;20459;-62
2021/11/28 09:37:49;;;;;;;12.35;7.22;;;;;;;11.21;80.27;98356.06;4977530;28;20157;-63
2021/11/28 09:40:15;;;;;;;14.02;7.90;;;;;;;11.22;80.75;98354.84;4982079;28;20105;-68
2021/11/28 09:42:50;;;;;;;9.80;7.72;;;;;;;11.23;81.27;98331.13;4978400;28;20105;-61
2021/11/28 09:45:15;;;;;;;13.07;7.70;;;;;;;11.26;81.39;98323.81;4977437;28;20081;-66
2021/11/28 09:47:43;;;;;;;11.70;7.45;;;;;;;11.33;82.46;98312.28;4977500;28;20486;-63
2021/11/28 09:50:10;;;;;;;11.02;7.68;;;;;;;11.39;82.45;98307.63;4977251;28;20030;-65
2021/11/28 09:52:36;;;;;;;11.68;7.75;;;;;;;11.48;82.68;98301.25;4959699;28;20073;-66
2021/11/28 09:55:06;;;;;;;11.00;7.95;;;;;;;11.51;82.11;98283.50;4976906;28;20050;-66
2021/11/28 09:57:31;;;;;;;12.52;8.38;;;;;;;11.56;81.18;98280.09;4966349;28;20109;-63
2021/11/28 09:59:57;;;;;;;12.23;8.73;;;;;;;11.61;80.75;98266.19;4976587;28;20047;-63
2021/11/28 10:02:26;;;;;;;16.90;9.50;;;;;;;11.69;82.10;98269.50;4976684;28;20038;-67
2021/11/28 10:04:54;;;;;;;12.55;8.23;;;;;;;11.73;80.72;98262.50;4976729;28;20106;-64
2021/11/28 10:07:19;;;;;;;14.68;7.97;;;;;;;11.74;79.91;98257.66;4959503;28;20093;-62
2021/11/28 10:09:45;;;;;;;15.18;8.23;;;;;;;11.75;80.14;98254.38;4976150;28;20111;-63
2021/11/28 10:12:11;;;;;;;13.90;8.85;;;;;;;11.79;80.38;98254.28;4974256;28;20022;-65
2021/11/28 10:14:36;;;;;;;17.20;10.73;;;;;;;11.85;81.03;98249.63;4976374;28;20015;-71
2021/11/28 10:17:02;;;;;;;17.88;11.13;;;;;;;11.98;81.64;98241.81;4976655;28;21260;-70
2021/11/28 10:19:29;;;;;;;14.52;9.68;;;;;;;12.05;80.28;98238.75;4976650;28;20318;-64
2021/11/28 10:21:54;;;;;;;12.93;8.90;;;;;;;12.16;79.92;98232.66;4977075;28;20069;-63
2021/11/28 10:24:19;;;;;;;14.15;9.20;;;;;;;12.24;78.91;98219.06;4976470;28;20063;-63
2021/11/28 10:26:54;;;;;;;16.05;8.60;;;;;;;12.40;78.80;98215.19;4976561;28;20029;-65
2021/11/28 10:29:20;;;;;;;12.93;9.00;;;;;;;12.53;78.93;98216.59;4976764;28;20063;-68
2021/11/28 10:31:47;;;;;;;11.45;8.05;;;;;;;12.62;78.26;98224.28;4976549;28;20438;-64
2021/11/28 10:34:37;;;;;;;13.32;9.05;;;;;;;12.62;77.71;98213.78;4976546;28;20026;-64
2021/11/28 10:37:03;;;;;;;13.07;8.48;;;;;;;12.55;76.21;98216.91;4958122;28;20045;-69
2021/11/28 10:39:28;;;;;;;12.45;8.93;;;;;;;12.51;77.34;98204.22;4976517;28;20026;-69
2021/11/28 10:41:56;;;;;;;11.02;8.50;;;;;;;12.52;78.03;98209.38;4982167;28;20022;-63
2021/11/28 10:44:24;;;;;;;14.43;9.15;;;;;;;12.53;78.04;98205.31;4976613;28;20042;-69
2021/11/28 10:46:51;;;;;;;16.27;9.40;;;;;;;12.55;78.48;98185.91;4976732;28;20315;-68
2021/11/28 10:49:19;;;;;;;13.35;9.52;;;;;;;12.59;77.79;98194.19;4976556;28;20030;-63
2021/11/28 10:51:50;;;;;;;16.48;9.70;;;;;;;12.55;78.14;98185.13;4976228;28;20027;-63
2021/11/28 10:54:27;;;;;;;;;;;;;;;12.52;77.70;98186.06;4977116;28;20119;-64
2021/11/28 10:57:08;;;;;;;15.32;10.57;;;;;;;12.49;77.62;98187.78;4974889;28;19918;-62
2021/11/28 10:59:35;;;;;;;16.33;9.98;;;;;;;12.43;77.01;98177.63;4976365;28;20373;-62
2021/11/28 11:02:17;;;;;;;15.13;10.90;;;;;;;12.40;78.56;98173.72;4974332;28;20022;-62
2021/11/28 11:04:43;;;;;;;16.20;10.95;;;;;;;12.40;78.79;98170.88;4976362;28;20319;-63
2021/11/28 11:07:13;;;;;;;22.55;14.50;;;;;;;12.39;78.20;98155.25;4976183;28;20035;-63
2021/11/28 11:09:44;;;;;;;21.67;12.68;;;;;;;12.37;78.42;98152.13;4976116;28;20122;-62
2021/11/28 11:12:35;;;;;;;29.27;15.75;;;;;;;12.35;79.16;98151.81;4976311;28;20441;-62
2021/11/28 11:15:00;;;;;;;32.42;17.65;;;;;;;12.35;79.13;98154.63;4974717;28;20027;-63
2021/11/28 11:17:31;;;;;;;50.70;26.13;;;;;;;12.34;78.95;98164.31;4970600;28;20064;-62
2021/11/28 11:19:58;;;;;;;40.88;20.40;;;;;;;12.35;79.14;98160.25;4970596;28;20030;-62
2021/11/28 11:22:29;;;;;;;68.03;32.83;;;;;;;12.31;79.22;98160.38;4969313;28;20053;-62
2021/11/28 11:24:59;;;;;;;49.95;27.05;;;;;;;12.29;79.55;98160.06;4955507;28;20177;-64
2021/11/28 11:27:30;;;;;;;33.97;18.70;;;;;;;12.30;79.09;98153.19;4973909;28;20038;-62
2021/11/28 11:30:00;;;;;;;28.02;17.17;;;;;;;12.28;79.04;98155.69;4972700;28;20166;-63